Time;durP1;ratioP1;P1;durP2;ratioP2;P2;SDS_P1;SDS_P2;PMS_P1;PMS_P2;Temp;Humidity;BMP_temperature;BMP_pressure;BME280_temperature;BME280_humidity;BME280_pressure;Samples;Min_cycle;Max_cycle;Signal;HPM_P1;HPM_P2
2022/04/27 00:00:19;;;;;;;19.35;8.85;;;4.60;99.90;;;;;;5040402;28;20508;-74
2022/04/27 00:02:45;;;;;;;16.40;7.53;;;4.60;99.90;;;;;;5041255;28;20096;-74
2022/04/27 00:05:11;;;;;;;18.67;8.02;;;4.60;99.90;;;;;;5047188;28;20331;-74
2022/04/27 00:07:37;;;;;;;16.85;7.72;;;4.70;99.90;;;;;;5051182;28;20045;-72
2022/04/27 00:10:05;;;;;;;19.08;9.35;;;4.70;99.90;;;;;;5049939;28;20030;-74
2022/04/27 00:12:32;;;;;;;16.48;7.85;;;4.60;99.90;;;;;;5049535;28;20044;-75
2022/04/27 00:14:57;;;;;;;21.77;9.52;;;4.60;99.90;;;;;;5046492;28;20480;-75
2022/04/27 00:17:24;;;;;;;19.67;8.07;;;4.60;99.90;;;;;;5042842;28;20530;-76
2022/04/27 00:19:50;;;;;;;22.08;8.73;;;4.60;99.90;;;;;;5042251;28;20022;-74
2022/04/27 00:22:16;;;;;;;20.58;9.05;;;4.70;99.90;;;;;;5036729;28;20359;-76
2022/04/27 00:24:41;;;;;;;21.08;9.60;;;4.70;99.90;;;;;;5041667;28;20126;-78
2022/04/27 00:27:07;;;;;;;20.48;8.95;;;4.70;99.90;;;;;;5044612;28;20509;-78
2022/04/27 00:29:33;;;;;;;22.52;10.48;;;4.60;99.90;;;;;;5039100;28;20033;-77
2022/04/27 00:31:59;;;;;;;31.85;11.40;;;2.70;99.90;;;;;;5036089;28;20025;-76
2022/04/27 00:34:25;;;;;;;25.95;10.80;;;4.80;99.90;;;;;;5033076;28;20041;-77
2022/04/27 00:36:50;;;;;;;33.72;13.48;;;4.90;99.90;;;;;;5037494;28;20087;-77
2022/04/27 00:39:17;;;;;;;41.78;14.95;;;5.00;99.90;;;;;;5030451;28;20037;-77
2022/04/27 00:41:59;;;;;;;27.73;11.50;;;5.20;99.90;;;;;;5029512;28;20486;-78
2022/04/27 00:44:32;;;;;;;33.50;13.00;;;5.20;99.90;;;;;;5047037;28;20029;-77
2022/04/27 00:47:00;;;;;;;27.02;12.23;;;5.50;99.90;;;;;;5050683;28;20031;-78
2022/04/27 00:49:26;;;;;;;32.22;12.07;;;5.40;99.90;;;;;;5053955;28;20025;-77
2022/04/27 00:51:53;;;;;;;32.13;13.43;;;5.20;99.90;;;;;;5053501;28;20449;-77
2022/04/27 00:54:22;;;;;;;37.10;13.45;;;5.30;99.90;;;;;;5055677;28;20035;-79
2022/04/27 00:56:49;;;;;;;38.63;13.77;;;5.40;99.90;;;;;;5054106;28;20091;-77
2022/04/27 00:59:16;;;;;;;33.63;12.27;;;5.50;99.90;;;;;;5052823;28;20052;-77
2022/04/27 01:01:41;;;;;;;32.17;12.50;;;5.50;99.90;;;;;;5052445;28;20096;-75
2022/04/27 01:04:08;;;;;;;31.83;11.52;;;5.70;99.90;;;;;;5054842;28;20040;-76
2022/04/27 01:06:38;;;;;;;29.52;13.52;;;5.60;99.90;;;;;;5053938;28;20026;-78
2022/04/27 01:09:04;;;;;;;30.63;12.15;;;5.60;99.90;;;;;;5058693;28;20056;-79
2022/04/27 01:11:32;;;;;;;30.20;11.73;;;5.50;99.90;;;;;;5057278;28;20021;-76
2022/04/27 01:13:58;;;;;;;24.10;10.65;;;5.60;99.90;;;;;;5051339;28;20033;-75
2022/04/27 01:16:23;;;;;;;30.42;11.05;;;5.80;99.90;;;;;;5057432;28;20055;-76
2022/04/27 01:18:50;;;;;;;28.98;11.05;;;5.80;99.90;;;;;;5060981;28;20089;-76
2022/04/27 01:21:16;;;;;;;23.52;9.55;;;5.80;99.90;;;;;;5064044;28;20389;-77
2022/04/27 01:23:42;;;;;;;29.23;10.90;;;5.80;99.90;;;;;;5058106;28;20032;-78
2022/04/27 01:26:08;;;;;;;23.70;9.93;;;5.80;99.90;;;;;;5050988;28;20029;-76
2022/04/27 01:28:35;;;;;;;22.25;10.48;;;6.00;99.90;;;;;;5055835;28;20047;-75
2022/04/27 01:31:04;;;;;;;23.65;8.80;;;6.10;99.90;;;;;;5056558;28;20025;-78
2022/04/27 01:33:31;;;;;;;20.35;8.65;;;6.20;99.90;;;;;;5057001;28;20409;-75
2022/04/27 01:35:58;;;;;;;18.58;8.27;;;6.30;99.90;;;;;;5056454;28;20032;-77
2022/04/27 01:38:24;;;;;;;18.33;9.05;;;6.30;99.90;;;;;;5058674;28;20017;-76
2022/04/27 01:40:56;;;;;;;19.63;8.73;;;6.30;99.90;;;;;;5057274;28;20059;-75
2022/04/27 01:43:24;;;;;;;19.25;8.20;;;6.40;99.90;;;;;;5050436;28;20026;-76
2022/04/27 01:45:53;;;;;;;20.70;9.57;;;6.40;99.90;;;;;;5039016;28;20624;-75
2022/04/27 01:48:19;;;;;;;19.52;8.85;;;6.40;99.90;;;;;;5037974;28;20033;-78
2022/04/27 01:50:45;;;;;;;17.17;9.38;;;6.50;99.90;;;;;;5037726;28;20026;-76
2022/04/27 01:55:55;;;;;;;19.23;8.63;;;6.50;99.90;;;;;;5038880;28;20040;-75
2022/04/27 01:58:22;;;;;;;24.80;8.13;;;6.50;99.90;;;;;;5037824;28;20017;-79
2022/04/27 02:00:49;;;;;;;24.23;9.32;;;6.50;99.90;;;;;;5037253;28;20025;-76
2022/04/27 02:03:15;;;;;;;16.73;8.75;;;6.50;99.90;;;;;;5036356;28;20034;-77
2022/04/27 02:05:44;;;;;;;18.92;8.48;;;6.60;99.90;;;;;;5038974;28;20029;-80
2022/04/27 02:08:10;;;;;;;18.33;8.40;;;6.60;99.90;;;;;;5036736;28;20025;-75
2022/04/27 02:10:36;;;;;;;15.68;7.55;;;6.60;99.90;;;;;;5034931;28;20067;-77
2022/04/27 02:13:07;;;;;;;17.73;8.13;;;6.60;99.90;;;;;;5032750;28;20443;-76
2022/04/27 02:15:33;;;;;;;17.02;7.57;;;6.60;99.90;;;;;;5036632;28;20113;-76
2022/04/27 02:18:00;;;;;;;15.82;7.22;;;6.60;99.90;;;;;;5036082;28;20041;-74
2022/04/27 02:20:29;;;;;;;15.68;7.82;;;6.60;99.90;;;;;;5035019;28;20017;-75
2022/04/27 02:22:55;;;;;;;15.00;7.45;;;8.90;99.90;;;;;;5036033;28;20025;-78
2022/04/27 02:25:22;;;;;;;12.65;6.53;;;6.60;99.90;;;;;;5035565;28;20032;-78
2022/04/27 02:27:49;;;;;;;14.23;6.50;;;6.60;99.90;;;;;;5032114;28;20029;-78
2022/04/27 02:30:16;;;;;;;11.55;6.47;;;6.50;99.90;;;;;;5034978;28;20296;-76
2022/04/27 02:32:42;;;;;;;12.43;5.90;;;6.40;99.90;;;;;;5036370;28;20021;-77
2022/04/27 02:35:09;;;;;;;16.27;5.53;;;6.30;99.90;;;;;;5035281;28;20486;-77
2022/04/27 02:37:36;;;;;;;11.48;5.82;;;6.30;99.90;;;;;;5038977;28;20018;-75
2022/04/27 02:40:02;;;;;;;12.73;6.22;;;6.20;99.90;;;;;;5034380;28;20029;-75
2022/04/27 02:42:29;;;;;;;10.45;6.00;;;6.20;99.90;;;;;;5041189;28;20044;-77
2022/04/27 02:44:58;;;;;;;10.15;5.45;;;6.00;99.90;;;;;;5058390;28;20059;-77
2022/04/27 02:47:24;;;;;;;10.45;5.50;;;5.90;99.90;;;;;;5055942;28;20028;-75
2022/04/27 02:52:35;;;;;;;12.98;5.78;;;5.60;99.90;;;;;;5064750;28;20019;-75
2022/04/27 02:55:01;;;;;;;11.15;6.22;;;5.60;99.90;;;;;;5064748;28;20088;-75
2022/04/27 02:57:26;;;;;;;12.93;6.25;;;5.50;99.90;;;;;;5063411;28;20021;-76
2022/04/27 02:59:52;;;;;;;11.35;5.78;;;5.40;99.90;;;;;;5061731;28;20037;-77
2022/04/27 03:02:18;;;;;;;11.57;5.90;;;5.30;99.90;;;;;;5061838;28;20005;-75
2022/04/27 03:04:44;;;;;;;9.40;4.95;;;5.10;99.90;;;;;;5059951;28;20060;-76
2022/04/27 03:07:10;;;;;;;9.75;4.90;;;4.70;99.90;;;;;;5061300;28;20040;-77
2022/04/27 03:09:36;;;;;;;12.95;5.70;;;4.90;99.90;;;;;;5061046;28;20029;-76
2022/04/27 03:12:02;;;;;;;15.90;6.20;;;4.90;99.90;;;;;;5058438;28;20025;-77
2022/04/27 03:14:31;;;;;;;12.30;5.88;;;4.90;99.90;;;;;;5061943;28;20067;-76
2022/04/27 03:16:57;;;;;;;15.70;6.60;;;5.00;99.90;;;;;;5062042;28;20029;-76
2022/04/27 03:19:23;;;;;;;14.93;6.15;;;4.90;99.90;;;;;;5063365;28;20040;-76
2022/04/27 03:21:50;;;;;;;14.23;6.45;;;4.90;99.90;;;;;;5062207;28;20112;-78
2022/04/27 03:24:17;;;;;;;14.95;6.65;;;4.90;99.90;;;;;;5060536;28;20438;-79
2022/04/27 03:26:43;;;;;;;11.18;5.88;;;4.90;99.90;;;;;;5062033;28;20029;-76
2022/04/27 03:29:09;;;;;;;12.63;6.38;;;4.70;99.90;;;;;;5062493;28;20043;-74
2022/04/27 03:31:35;;;;;;;14.43;7.40;;;4.70;99.90;;;;;;5063536;28;20025;-76
2022/04/27 03:34:01;;;;;;;14.02;7.03;;;4.70;99.90;;;;;;5061665;28;20032;-74
2022/04/27 03:36:27;;;;;;;10.95;5.88;;;4.80;99.90;;;;;;5059848;28;20043;-74
2022/04/27 03:38:53;;;;;;;14.93;6.60;;;4.80;99.90;;;;;;5059794;28;20053;-75
2022/04/27 03:41:22;;;;;;;14.20;7.15;;;4.80;99.90;;;;;;5060005;28;20086;-75
2022/04/27 03:43:48;;;;;;;14.30;7.00;;;4.70;99.90;;;;;;5049746;28;20017;-77
2022/04/27 03:46:15;;;;;;;16.48;6.50;;;4.60;99.90;;;;;;5044020;28;20025;-75
2022/04/27 03:48:41;;;;;;;15.63;5.93;;;4.60;99.90;;;;;;5042898;28;20010;-76
2022/04/27 03:51:07;;;;;;;13.90;5.75;;;4.50;99.90;;;;;;5045237;28;20106;-74
2022/04/27 03:53:33;;;;;;;13.40;6.00;;;4.40;99.90;;;;;;5043698;28;20108;-74
2022/04/27 03:55:59;;;;;;;13.15;6.38;;;4.40;99.90;;;;;;5039280;28;20548;-77
2022/04/27 03:58:25;;;;;;;11.23;5.50;;;4.30;99.90;;;;;;5040107;28;20026;-75
2022/04/27 04:00:51;;;;;;;15.75;6.65;;;4.30;99.90;;;;;;5039823;28;20036;-75
2022/04/27 04:03:18;;;;;;;13.15;6.45;;;4.40;99.90;;;;;;5040537;28;20021;-76
2022/04/27 04:05:44;;;;;;;15.07;7.05;;;4.40;99.90;;;;;;5043608;28;20030;-75
2022/04/27 04:08:10;;;;;;;17.25;7.00;;;4.40;99.90;;;;;;5044068;28;20083;-75
2022/04/27 04:10:36;;;;;;;16.00;7.35;;;4.40;99.90;;;;;;5040405;28;20479;-78
2022/04/27 04:13:02;;;;;;;14.35;6.45;;;4.40;99.90;;;;;;5044493;28;20479;-78
2022/04/27 04:15:29;;;;;;;12.85;6.05;;;4.30;99.90;;;;;;5045197;28;20057;-76
2022/04/27 04:17:56;;;;;;;17.13;7.45;;;4.20;99.90;;;;;;5046409;28;20030;-76
2022/04/27 04:20:22;;;;;;;14.20;6.68;;;4.50;99.90;;;;;;5049871;28;20033;-76
2022/04/27 04:22:48;;;;;;;17.75;7.72;;;4.20;99.90;;;;;;5050495;28;20024;-75
2022/04/27 04:30:45;;;;;;;14.48;6.55;;;4.50;99.90;;;;;;5045938;28;20532;-75
2022/04/27 04:33:11;;;;;;;12.93;5.97;;;4.60;99.90;;;;;;5045456;28;20434;-74
2022/04/27 04:35:38;;;;;;;17.23;6.30;;;4.60;99.90;;;;;;5046858;28;20482;-75
2022/04/27 04:38:04;;;;;;;14.88;6.75;;;4.70;99.90;;;;;;5045517;28;20030;-78
2022/04/27 04:40:31;;;;;;;15.05;6.53;;;4.70;99.90;;;;;;5047484;28;20060;-75
2022/04/27 04:42:57;;;;;;;12.68;6.82;;;4.20;99.90;;;;;;5053588;28;20041;-78
2022/04/27 04:45:23;;;;;;;12.45;6.22;;;5.00;99.90;;;;;;5065673;28;20032;-76
2022/04/27 04:47:49;;;;;;;16.27;6.20;;;5.10;99.90;;;;;;5066216;28;20086;-75
2022/04/27 04:50:15;;;;;;;13.50;6.60;;;5.30;99.90;;;;;;5067171;28;20021;-80
2022/04/27 04:52:42;;;;;;;15.85;8.13;;;5.40;99.90;;;;;;5065846;28;20021;-75
2022/04/27 04:55:08;;;;;;;19.25;8.35;;;5.50;99.90;;;;;;5066026;28;20048;-78
2022/04/27 04:57:34;;;;;;;14.40;7.72;;;5.60;99.90;;;;;;5066929;28;20120;-80
2022/04/27 05:00:00;;;;;;;16.05;8.20;;;5.70;99.90;;;;;;5066784;28;20626;-77
2022/04/27 05:02:29;;;;;;;14.05;7.13;;;5.80;99.90;;;;;;5065730;28;20017;-74
2022/04/27 05:04:55;;;;;;;16.67;7.07;;;5.90;99.90;;;;;;5066014;28;20036;-76
2022/04/27 05:07:21;;;;;;;15.50;7.57;;;6.00;99.90;;;;;;5065797;28;20033;-75
2022/04/27 05:09:47;;;;;;;16.20;8.00;;;6.10;99.90;;;;;;5059986;28;20180;-77
2022/04/27 05:12:13;;;;;;;11.25;6.55;;;6.10;99.90;;;;;;5059678;28;20184;-81
2022/04/27 05:14:39;;;;;;;15.60;8.20;;;6.10;99.90;;;;;;5060964;28;20087;-78
2022/04/27 05:17:05;;;;;;;12.90;6.68;;;6.10;99.90;;;;;;5066724;28;20099;-74
2022/04/27 05:19:31;;;;;;;16.10;7.75;;;6.10;99.90;;;;;;5064908;28;20126;-76
2022/04/27 05:21:58;;;;;;;14.32;6.72;;;6.10;99.90;;;;;;5065701;28;20088;-75
2022/04/27 05:24:24;;;;;;;15.60;7.70;;;6.10;99.90;;;;;;5062640;28;20044;-75
2022/04/27 05:26:50;;;;;;;15.57;7.18;;;6.10;99.90;;;;;;5060486;28;20411;-75
2022/04/27 05:32:03;;;;;;;12.25;6.70;;;6.10;99.90;;;;;;5061279;28;20054;-78
2022/04/27 05:34:30;;;;;;;15.30;6.78;;;6.20;99.90;;;;;;5054847;28;20037;-74
2022/04/27 05:37:00;;;;;;;16.38;7.40;;;6.20;99.90;;;;;;5037326;28;20496;-76
2022/04/27 05:39:26;;;;;;;13.15;6.40;;;6.20;99.90;;;;;;5041287;28;20657;-75
2022/04/27 05:41:53;;;;;;;12.95;6.70;;;6.30;99.90;;;;;;5046592;28;20022;-74
2022/04/27 05:44:24;;;;;;;15.43;6.97;;;6.30;99.90;;;;;;5063601;28;20022;-78
2022/04/27 05:46:54;;;;;;;14.63;6.20;;;6.40;99.90;;;;;;5051838;28;20032;-75
2022/04/27 05:49:21;;;;;;;14.23;7.18;;;6.50;99.90;;;;;;5064840;28;20084;-76
2022/04/27 05:51:47;;;;;;;14.02;6.55;;;6.50;99.90;;;;;;5048779;28;20041;-74
2022/04/27 05:54:14;;;;;;;11.38;6.53;;;6.60;99.90;;;;;;5053919;28;20029;-77
2022/04/27 05:56:41;;;;;;;13.30;6.30;;;6.60;99.90;;;;;;5050664;28;20040;-74
2022/04/27 05:59:08;;;;;;;12.93;5.82;;;6.60;99.90;;;;;;5047495;28;20037;-75
2022/04/27 06:01:34;;;;;;;10.63;5.65;;;6.60;99.90;;;;;;5053674;28;20040;-76
2022/04/27 06:04:00;;;;;;;11.60;5.60;;;6.50;99.90;;;;;;5072525;28;20048;-74
2022/04/27 06:06:27;;;;;;;15.00;6.72;;;6.50;99.90;;;;;;5073012;28;20079;-80
2022/04/27 06:08:53;;;;;;;12.50;6.40;;;6.50;99.90;;;;;;5072237;28;20025;-78
2022/04/27 06:11:19;;;;;;;10.38;5.78;;;6.60;99.90;;;;;;5071088;28;20084;-75
2022/04/27 06:13:47;;;;;;;10.77;5.85;;;6.80;99.90;;;;;;5067652;28;20035;-74
2022/04/27 06:16:13;;;;;;;12.65;6.80;;;6.90;99.90;;;;;;5064547;28;20053;-76
2022/04/27 06:18:40;;;;;;;15.20;7.10;;;6.80;99.90;;;;;;5060122;28;20119;-76
2022/04/27 06:21:10;;;;;;;15.10;7.03;;;6.70;99.90;;;;;;5066511;28;20017;-75
2022/04/27 06:23:38;;;;;;;16.00;6.88;;;6.70;99.90;;;;;;5045570;28;20037;-74
2022/04/27 06:26:07;;;;;;;14.63;7.05;;;6.80;99.90;;;;;;5055511;28;20029;-74
2022/04/27 06:28:33;;;;;;;10.40;5.83;;;6.70;99.90;;;;;;5052837;28;20100;-74
2022/04/27 06:31:00;;;;;;;13.38;7.18;;;6.70;99.90;;;;;;5050850;28;20264;-75
2022/04/27 06:33:26;;;;;;;12.60;6.65;;;6.70;99.90;;;;;;5054317;28;20460;-74
2022/04/27 06:35:53;;;;;;;12.70;7.30;;;6.60;99.90;;;;;;5053895;28;20032;-74
2022/04/27 06:38:19;;;;;;;16.75;6.97;;;6.70;99.90;;;;;;5041442;28;20021;-75
2022/04/27 06:40:45;;;;;;;14.73;7.40;;;6.60;99.90;;;;;;5052214;28;20477;-75
2022/04/27 06:43:10;;;;;;;15.05;7.47;;;6.50;99.90;;;;;;5052286;28;20031;-75
2022/04/27 06:45:39;;;;;;;16.23;7.85;;;6.70;99.90;;;;;;5048091;28;20700;-78
2022/04/27 06:48:05;;;;;;;14.63;8.07;;;6.80;99.90;;;;;;5046355;28;20017;-76
2022/04/27 06:50:32;;;;;;;21.40;9.10;;;7.00;99.90;;;;;;5047051;28;20151;-74
2022/04/27 06:52:59;;;;;;;25.33;12.20;;;7.40;99.90;;;;;;5042962;28;20032;-77
2022/04/27 06:55:27;;;;;;;26.40;11.02;;;6.80;99.90;;;;;;5051476;28;20045;-77
2022/04/27 06:57:53;;;;;;;22.75;10.23;;;7.00;99.90;;;;;;5050783;28;20514;-75
2022/04/27 07:00:19;;;;;;;24.27;10.20;;;6.80;99.90;;;;;;5043986;28;20033;-80
2022/04/27 07:02:46;;;;;;;24.38;11.10;;;6.90;99.90;;;;;;5045324;28;20028;-75
2022/04/27 07:05:17;;;;;;;27.85;10.75;;;7.10;99.90;;;;;;5035312;28;20025;-74
2022/04/27 07:07:44;;;;;;;24.63;10.43;;;7.00;99.90;;;;;;5056360;28;20017;-76
2022/04/27 07:10:12;;;;;;;23.70;11.07;;;7.20;99.90;;;;;;5061599;28;20063;-78
2022/04/27 07:12:38;;;;;;;23.05;9.45;;;7.40;99.90;;;;;;5036301;28;20524;-76
2022/04/27 07:15:05;;;;;;;18.90;9.23;;;7.50;99.90;;;;;;5027655;28;20053;-76
2022/04/27 07:17:31;;;;;;;25.48;11.13;;;7.60;99.90;;;;;;5028182;28;20045;-79
2022/04/27 07:19:57;;;;;;;21.42;9.43;;;7.70;99.90;;;;;;5028336;28;20536;-78
2022/04/27 07:22:23;;;;;;;22.98;12.13;;;7.70;99.90;;;;;;5030621;28;20061;-77
2022/04/27 07:24:49;;;;;;;24.95;10.02;;;8.10;99.90;;;;;;5029131;28;20057;-77
2022/04/27 07:27:18;;;;;;;20.98;9.13;;;7.70;99.90;;;;;;5026723;28;20020;-77
2022/04/27 07:29:44;;;;;;;23.50;9.17;;;8.00;99.90;;;;;;5026502;28;20521;-76
2022/04/27 07:32:10;;;;;;;16.63;8.57;;;8.20;99.90;;;;;;5028642;28;20021;-76
2022/04/27 07:34:36;;;;;;;16.90;8.27;;;8.60;99.90;;;;;;5028317;28;20076;-76
2022/04/27 07:37:04;;;;;;;18.85;8.68;;;8.80;99.90;;;;;;5028080;28;20051;-76
2022/04/27 07:39:30;;;;;;;17.25;8.63;;;8.70;99.90;;;;;;5027688;28;20029;-76
2022/04/27 07:41:56;;;;;;;14.77;7.55;;;8.90;99.90;;;;;;5027476;28;20022;-76
2022/04/27 07:44:22;;;;;;;17.75;8.73;;;9.10;99.90;;;;;;5028164;28;20624;-75
2022/04/27 07:46:48;;;;;;;16.30;9.10;;;8.60;99.90;;;;;;5028053;28;20101;-76
2022/04/27 07:49:16;;;;;;;13.60;7.75;;;9.20;99.90;;;;;;5030222;28;20025;-76
2022/04/27 07:51:42;;;;;;;15.68;8.18;;;9.90;99.90;;;;;;5032136;28;20025;-76
2022/04/27 07:54:08;;;;;;;14.23;7.78;;;10.00;99.90;;;;;;5031799;28;20034;-76
2022/04/27 07:56:34;;;;;;;16.92;8.90;;;9.90;99.90;;;;;;5031560;28;20024;-76
2022/04/27 07:59:00;;;;;;;19.27;9.27;;;9.90;99.90;;;;;;5031657;28;20057;-75
2022/04/27 08:01:25;;;;;;;16.38;9.02;;;9.70;99.90;;;;;;5031676;28;20026;-76
2022/04/27 08:03:51;;;;;;;16.80;9.20;;;9.90;99.90;;;;;;5031680;28;20022;-76
2022/04/27 08:06:18;;;;;;;17.35;9.30;;;10.10;99.90;;;;;;5030484;28;20036;-76
2022/04/27 08:08:44;;;;;;;14.13;7.90;;;10.30;99.90;;;;;;5031739;28;20026;-76
2022/04/27 08:11:13;;;;;;;16.30;8.23;;;10.80;99.90;;;;;;5032639;28;20026;-76
2022/04/27 08:13:39;;;;;;;15.82;8.35;;;10.50;99.90;;;;;;5031754;28;20230;-76
2022/04/27 08:16:12;;;;;;;17.60;8.98;;;11.70;99.90;;;;;;5032872;28;20053;-76
2022/04/27 08:18:41;;;;;;;14.10;8.07;;;11.70;99.90;;;;;;5033085;28;20056;-76
2022/04/27 08:21:16;;;;;;;16.88;9.10;;;11.80;99.90;;;;;;5033321;28;20052;-76
2022/04/27 08:23:47;;;;;;;16.27;8.98;;;12.00;99.90;;;;;;5033635;28;20106;-76
2022/04/27 08:26:13;;;;;;;16.90;9.25;;;12.10;99.90;;;;;;5033123;28;20030;-76
2022/04/27 08:28:41;;;;;;;14.80;8.40;;;12.20;99.90;;;;;;5032782;28;20037;-76
2022/04/27 08:31:09;;;;;;;18.48;9.40;;;12.70;99.90;;;;;;5033010;28;20024;-76
2022/04/27 08:33:35;;;;;;;15.27;9.80;;;13.00;99.90;;;;;;5033064;28;20045;-76
2022/04/27 08:36:03;;;;;;;14.60;8.15;;;12.50;99.90;;;;;;5031426;28;20021;-76
2022/04/27 08:38:30;;;;;;;16.35;8.75;;;12.30;99.90;;;;;;5032730;28;20382;-75
2022/04/27 08:40:57;;;;;;;14.23;8.73;;;12.10;99.90;;;;;;5031354;28;20036;-76
2022/04/27 08:43:23;;;;;;;15.18;8.73;;;11.70;99.90;;;;;;5032863;28;20112;-76
2022/04/27 08:45:49;;;;;;;15.88;9.50;;;11.30;99.90;;;;;;5032723;28;20367;-76
2022/04/27 08:48:21;;;;;;;16.85;9.30;;;10.70;99.90;;;;;;5033131;28;20105;-76
2022/04/27 08:50:48;;;;;;;18.77;9.95;;;10.80;99.90;;;;;;5033035;28;20103;-76
2022/04/27 08:53:15;;;;;;;17.50;9.25;;;10.80;99.90;;;;;;5032309;28;20033;-76
2022/04/27 08:55:41;;;;;;;15.95;8.90;;;11.00;99.90;;;;;;5030484;28;20026;-76
2022/04/27 08:58:12;;;;;;;17.05;9.40;;;11.40;99.90;;;;;;5032330;28;20009;-76
2022/04/27 09:00:39;;;;;;;14.65;8.40;;;11.30;99.90;;;;;;5039374;28;20010;-76
2022/04/27 09:03:34;;;;;;;15.13;8.75;;;11.60;99.90;;;;;;5039464;28;20053;-76
2022/04/27 09:06:12;;;;;;;15.27;8.18;;;12.00;99.90;;;;;;5040710;28;20135;-76
2022/04/27 09:08:40;;;;;;;17.23;7.75;;;12.20;99.90;;;;;;5032331;28;20028;-76
2022/04/27 09:11:16;;;;;;;15.00;9.18;;;12.10;99.90;;;;;;5032029;28;20112;-76
2022/04/27 09:13:53;;;;;;;13.52;8.02;;;12.10;99.90;;;;;;5032003;28;20025;-76
2022/04/27 09:20:46;;;;;;;14.05;8.43;;;11.90;99.90;;;;;;5031861;28;20037;-76
2022/04/27 09:22:00;;;;;;;16.20;9.02;;;12.20;99.90;;;;;;5042264;28;20052;-77
2022/04/27 09:24:46;;;;;;;15.45;8.50;;;12.20;99.90;;;;;;5042760;28;20061;-76
2022/04/27 09:27:14;;;;;;;14.40;8.23;;;12.00;99.90;;;;;;5042453;28;20021;-76
2022/04/27 09:29:40;;;;;;;13.40;7.70;;;12.30;99.90;;;;;;5043001;28;20021;-76
2022/04/27 09:32:08;;;;;;;17.48;8.85;;;12.10;99.90;;;;;;5042645;28;20063;-75
2022/04/27 09:34:45;;;;;;;13.48;7.40;;;11.90;99.90;;;;;;5042044;28;20248;-76
2022/04/27 09:37:19;;;;;;;16.58;9.52;;;11.80;99.90;;;;;;5037836;28;20018;-76
2022/04/27 09:39:58;;;;;;;15.93;8.20;;;11.30;99.90;;;;;;5035839;28;20031;-76
2022/04/27 09:42:30;;;;;;;15.25;8.10;;;11.60;99.90;;;;;;5031106;28;20040;-75
2022/04/27 09:45:19;;;;;;;13.32;7.53;;;12.00;99.90;;;;;;5032923;28;20022;-76
2022/04/27 09:47:53;;;;;;;19.05;7.70;;;11.90;99.90;;;;;;5031157;28;20486;-76
2022/04/27 09:50:19;;;;;;;12.32;7.25;;;12.10;99.90;;;;;;5031117;28;20029;-76
2022/04/27 09:52:46;;;;;;;12.73;8.05;;;11.60;99.90;;;;;;5041935;28;20021;-76
2022/04/27 09:55:12;;;;;;;14.57;8.40;;;11.70;99.90;;;;;;5042119;28;20041;-75
2022/04/27 09:57:40;;;;;;;16.40;7.63;;;11.80;99.90;;;;;;5051978;28;20368;-76
2022/04/27 10:00:07;;;;;;;12.50;7.07;;;12.10;99.90;;;;;;5037864;28;20370;-75
2022/04/27 10:02:34;;;;;;;15.95;7.70;;;12.20;99.90;;;;;;5031220;28;20034;-76
2022/04/27 10:05:01;;;;;;;11.13;6.40;;;12.10;99.90;;;;;;5029620;28;20559;-77
2022/04/27 10:07:28;;;;;;;10.20;6.50;;;12.20;99.90;;;;;;5031202;28;20026;-75
2022/04/27 10:09:54;;;;;;;12.13;6.95;;;12.30;99.90;;;;;;5031202;28;20033;-76
2022/04/27 10:12:20;;;;;;;12.88;7.40;;;12.90;99.90;;;;;;5031088;28;20502;-76
2022/04/27 10:14:46;;;;;;;16.33;8.15;;;12.80;99.90;;;;;;5030798;28;20045;-76
2022/04/27 10:17:12;;;;;;;10.98;6.90;;;12.30;99.90;;;;;;5031162;28;20031;-76
2022/04/27 10:19:49;;;;;;;13.95;7.95;;;12.50;99.90;;;;;;5032308;28;20115;-76
2022/04/27 10:22:25;;;;;;;10.57;6.43;;;12.60;99.90;;;;;;5029923;28;20028;-76
2022/04/27 10:24:53;;;;;;;10.73;5.82;;;13.20;99.90;;;;;;5031038;28;20047;-76
2022/04/27 10:27:24;;;;;;;7.55;5.28;;;13.70;99.90;;;;;;5030320;28;20478;-76
2022/04/27 10:30:13;;;;;;;9.63;5.82;;;14.40;99.90;;;;;;5033033;28;20025;-76
2022/04/27 10:32:51;;;;;;;13.23;6.32;;;14.20;99.90;;;;;;5035690;28;20124;-77
2022/04/27 10:35:41;;;;;;;10.15;5.72;;;14.10;99.90;;;;;;5041709;28;20033;-75
2022/04/27 10:38:07;;;;;;;11.55;6.75;;;14.20;99.90;;;;;;5041053;28;20124;-76
2022/04/27 10:41:03;;;;;;;9.50;5.80;;;13.90;99.90;;;;;;5038447;28;20488;-75
2022/04/27 10:43:42;;;;;;;9.00;6.03;;;14.20;99.90;;;;;;5054492;28;20020;-76
2022/04/27 10:46:35;;;;;;;10.40;6.20;;;14.40;99.90;;;;;;5059822;28;20252;-76
2022/04/27 10:49:19;;;;;;;9.77;5.90;;;14.70;99.90;;;;;;5058923;28;20276;-77
2022/04/27 10:52:05;;;;;;;9.00;6.53;;;14.60;99.90;;;;;;5056042;28;20029;-76
2022/04/27 10:54:37;;;;;;;7.85;5.45;;;13.90;99.90;;;;;;5033779;28;20140;-77
2022/04/27 10:57:15;;;;;;;8.55;5.65;;;13.60;99.90;;;;;;5030084;28;20083;-76
2022/04/27 11:00:07;;;;;;;9.05;5.40;;;13.90;99.90;;;;;;5029105;28;20056;-77
2022/04/27 11:02:34;;;;;;;8.63;5.53;;;14.30;99.90;;;;;;5029002;28;20033;-76
2022/04/27 11:05:15;;;;;;;8.75;5.32;;;14.60;99.10;;;;;;5029117;28;20381;-76
2022/04/27 11:08:15;;;;;;;12.43;4.55;;;14.90;97.50;;;;;;5030028;28;20032;-77
2022/04/27 11:10:42;;;;;;;6.90;4.50;;;15.00;99.90;;;;;;5028532;28;20033;-77
2022/04/27 11:13:08;;;;;;;7.38;4.90;;;15.30;99.90;;;;;;5045317;28;20377;-77
2022/04/27 11:15:34;;;;;;;7.50;4.80;;;15.30;91.40;;;;;;5029739;28;20045;-76
2022/04/27 11:18:03;;;;;;;6.68;4.70;;;15.80;89.50;;;;;;5029880;28;20029;-77
2022/04/27 11:20:34;;;;;;;9.98;5.07;;;15.40;90.70;;;;;;5028341;28;20036;-77
2022/04/27 11:23:03;;;;;;;7.18;4.80;;;14.70;96.60;;;;;;5027924;28;20056;-77
2022/04/27 11:25:37;;;;;;;6.95;4.95;;;14.80;99.90;;;;;;5029372;28;20108;-77
2022/04/27 11:28:08;;;;;;;6.93;4.30;;;15.60;93.80;;;;;;5029565;28;20513;-77
2022/04/27 11:30:34;;;;;;;9.55;5.63;;;16.20;81.90;;;;;;5028498;28;20038;-77
2022/04/27 11:33:01;;;;;;;5.78;4.13;;;17.00;76.00;;;;;;5029596;28;20025;-77
2022/04/27 11:35:45;;;;;;;5.55;3.88;;;16.70;78.10;;;;;;5029536;28;20037;-76
2022/04/27 11:38:32;;;;;;;7.18;4.45;;;15.60;88.10;;;;;;5028476;28;20037;-77
2022/04/27 11:40:58;;;;;;;7.25;4.93;;;15.50;92.20;;;;;;5029464;28;20018;-77
2022/04/27 11:43:25;;;;;;;10.30;5.35;;;15.60;84.10;;;;;;5029682;28;20030;-76
2022/04/27 11:45:51;;;;;;;7.00;4.70;;;16.70;78.40;;;;;;5029343;28;20470;-76
2022/04/27 11:48:18;;;;;;;6.85;4.28;;;17.80;71.90;;;;;;5029513;28;20033;-75
2022/04/27 11:50:44;;;;;;;6.65;4.38;;;17.50;74.00;;;;;;5029845;28;20032;-77
2022/04/27 11:53:11;;;;;;;6.97;4.95;;;17.20;72.90;;;;;;5029284;28;20060;-77
2022/04/27 11:55:38;;;;;;;7.88;4.80;;;16.70;72.90;;;;;;5029169;28;20028;-77
2022/04/27 11:58:08;;;;;;;9.73;4.75;;;17.10;73.50;;;;;;5029560;28;20017;-76
2022/04/27 12:00:35;;;;;;;6.28;4.22;;;16.30;75.70;;;;;;5029295;28;20029;-76
2022/04/27 12:03:06;;;;;;;7.50;4.75;;;16.80;74.50;;;;;;5027979;28;20462;-76
2022/04/27 12:05:37;;;;;;;7.53;5.53;;;17.50;74.70;;;;;;5029379;28;20021;-76
2022/04/27 12:08:11;;;;;;;7.70;4.53;;;18.10;71.20;;;;;;5029290;28;20030;-76
2022/04/27 12:10:41;;;;;;;7.95;5.07;;;17.60;71.00;;;;;;5029079;28;20534;-76
2022/04/27 12:13:09;;;;;;;8.27;5.13;;;17.00;70.80;;;;;;5029217;28;20025;-76
2022/04/27 12:15:37;;;;;;;7.07;4.97;;;16.90;72.70;;;;;;5029225;28;20406;-76
2022/04/27 12:18:03;;;;;;;6.55;4.82;;;16.20;75.30;;;;;;5029325;28;20018;-77
2022/04/27 12:20:39;;;;;;;9.00;4.88;;;16.20;76.10;;;;;;5027782;28;20509;-76
2022/04/27 12:23:07;;;;;;;9.35;4.95;;;16.20;78.40;;;;;;5027904;28;20022;-76
2022/04/27 12:25:42;;;;;;;7.40;4.80;;;15.60;91.80;;;;;;5027656;28;20072;-77
2022/04/27 12:28:14;;;;;;;5.70;4.35;;;16.30;94.20;;;;;;5029235;28;20029;-76
2022/04/27 12:30:53;;;;;;;6.90;3.95;;;17.00;84.70;;;;;;5028996;28;20439;-77
2022/04/27 12:33:27;;;;;;;5.93;4.70;;;18.30;76.70;;;;;;5029208;28;20033;-76
2022/04/27 12:39:05;;;;;;;5.43;4.38;;;17.60;71.80;;;;;;5032647;28;20032;-76
2022/04/27 12:41:43;;;;;;;6.88;4.55;;;18.40;70.00;;;;;;5032352;28;20274;-76
2022/04/27 12:44:11;;;;;;;4.78;4.05;;;18.70;70.60;;;;;;5032335;28;20021;-76
2022/04/27 12:47:13;;;;;;;6.18;4.68;;;17.90;68.50;;;;;;5032433;28;20052;-76
2022/04/27 12:49:50;;;;;;;8.63;5.20;;;17.50;72.20;;;;;;5029756;28;20029;-76
2022/04/27 12:52:30;;;;;;;7.95;5.15;;;16.10;75.30;;;;;;5031818;28;20103;-77
2022/04/27 12:55:10;;;;;;;6.03;4.32;;;16.10;84.30;;;;;;5032466;28;20390;-76
2022/04/27 12:57:54;;;;;;;5.95;3.92;;;15.90;91.30;;;;;;5047426;28;20017;-76
2022/04/27 13:00:46;;;;;;;6.47;4.50;;;16.50;90.10;;;;;;5030796;28;20508;-76
2022/04/27 13:03:14;;;;;;;4.68;3.78;;;17.70;91.30;;;;;;5032218;28;20104;-76
2022/04/27 13:05:41;;;;;;;4.15;3.67;;;18.40;77.00;;;;;;5032565;28;20402;-76
2022/04/27 13:08:08;;;;;;;5.20;3.85;;;18.20;74.10;;;;;;5032088;28;20639;-76
2022/04/27 13:13:20;;;;;;;9.95;4.30;;;17.90;72.80;;;;;;5032016;28;20029;-76